Zelada Desgagnes — CYDR — position and weather

sailwx.info

Track history (hours):
 
Tides and Currents Weather Stations Pressure Air Temp Water Temp Dewpoint Dewpoint Depression Visibility Wind Speed Wind Dir Waves Ship Positions

Zelada Desgagnes

Last reported at 2017-Dec-15 23:45 UTC. Time now 2018-Jan-21 05:03 UTC.
Position N 56°18' E 012°06'.
Warning: this ship's position is 36 days out of date.

Length 139 m; draft 6.7 m.

Type: Ship. MMSI: 316015133.

Date/timePositionNaut miles runAvg speedWind from/ knotsBaromVisibWave heightAir tempDewpointWater temp
2017-Dec-15 23:45N 56°18' E 012°06'312.4
2017-Dec-15 23:30N 56°16' E 012°10'612.4
2017-Dec-15 23:00N 56°13' E 012°19'612.9
2017-Dec-15 22:30N 56°09' E 012°29'611.8
2017-Dec-15 22:00N 56°05' E 012°36'714.1
2017-Dec-15 21:30N 55°59' E 012°41'713.3
2017-Dec-15 21:00N 55°52' E 012°41'713.8
2017-Dec-15 20:30N 55°45' E 012°42'714.0
2017-Dec-15 20:00N 55°38' E 012°42'510.1
2017-Dec-15 19:30N 55°33' E 012°43'4 8.3
2017-Dec-15 19:01N 55°29' E 012°44'5 9.9
2017-Dec-15 18:30N 55°24' E 012°41'611.9
2017-Dec-15 18:00N 55°18' E 012°43'714.0
2017-Dec-15 17:30N 55°16' E 012°54'714.0
2017-Dec-15 17:00N 55°15' E 013°06'813.9
2017-Dec-15 16:27N 55°15' E 013°20'813.9
2017-Dec-15 15:54N 55°14' E 013°33'713.6
2017-Dec-15 15:23N 55°14' E 013°46'1113.5
2017-Dec-15 14:33N 55°13' E 014°05'113.1
2017-Dec-15 14:29N 55°13' E 014°07'612.3
2017-Dec-15 14:00N 55°14' E 014°17'713.1
2017-Dec-15 13:28N 55°19' E 014°25'613.6
2017-Dec-15 13:00N 55°24' E 014°32'713.4
2017-Dec-15 12:30N 55°28' E 014°41'813.5
2017-Dec-15 11:53N 55°33' E 014°54'513.3
2017-Dec-15 11:29N 55°35' E 015°02'613.0
2017-Dec-15 11:00N 55°39' E 015°11'612.9
2017-Dec-15 10:30N 55°42' E 015°21'612.7
2017-Dec-15 10:01N 55°45' E 015°31'612.6
2017-Dec-15 09:31N 55°48' E 015°41'612.3
2017-Dec-15 09:01N 55°51' E 015°50'612.0
2017-Dec-15 08:30N 55°54' E 015°60'612.1
2017-Dec-15 08:01N 55°57' E 016°09'611.9
2017-Dec-15 07:30N 55°60' E 016°18'611.9
2017-Dec-15 07:01N 56°03' E 016°27'  
Track history (hours):
 
Tides and Currents Weather Stations Pressure Air Temp Water Temp Dewpoint Dewpoint Depression Visibility Wind Speed Wind Dir Waves Ship Positions

Zelada Desgagnes

Last reported at 2017-Dec-15 23:45 UTC. Time now 2018-Jan-21 05:03 UTC.
Position N 56°18' E 012°06'.
Warning: this ship's position is 36 days out of date.

Length 139 m; draft 6.7 m.

Type: Ship. MMSI: 316015133.

Date/timePositionNaut miles runAvg speedWind from/ knotsBaromVisibWave heightAir tempDewpointWater temp
2017-Dec-15 23:45N 56°18' E 012°06'312.4
2017-Dec-15 23:30N 56°16' E 012°10'612.4
2017-Dec-15 23:00N 56°13' E 012°19'612.9
2017-Dec-15 22:30N 56°09' E 012°29'611.8
2017-Dec-15 22:00N 56°05' E 012°36'714.1
2017-Dec-15 21:30N 55°59' E 012°41'713.3
2017-Dec-15 21:00N 55°52' E 012°41'713.8
2017-Dec-15 20:30N 55°45' E 012°42'714.0
2017-Dec-15 20:00N 55°38' E 012°42'510.1
2017-Dec-15 19:30N 55°33' E 012°43'4 8.3
2017-Dec-15 19:01N 55°29' E 012°44'5 9.9
2017-Dec-15 18:30N 55°24' E 012°41'611.9
2017-Dec-15 18:00N 55°18' E 012°43'714.0
2017-Dec-15 17:30N 55°16' E 012°54'714.0
2017-Dec-15 17:00N 55°15' E 013°06'813.9
2017-Dec-15 16:27N 55°15' E 013°20'813.9
2017-Dec-15 15:54N 55°14' E 013°33'713.6
2017-Dec-15 15:23N 55°14' E 013°46'1113.5
2017-Dec-15 14:33N 55°13' E 014°05'113.1
2017-Dec-15 14:29N 55°13' E 014°07'612.3
2017-Dec-15 14:00N 55°14' E 014°17'713.1
2017-Dec-15 13:28N 55°19' E 014°25'613.6
2017-Dec-15 13:00N 55°24' E 014°32'713.4
2017-Dec-15 12:30N 55°28' E 014°41'813.5
2017-Dec-15 11:53N 55°33' E 014°54'513.3
2017-Dec-15 11:29N 55°35' E 015°02'613.0
2017-Dec-15 11:00N 55°39' E 015°11'612.9
2017-Dec-15 10:30N 55°42' E 015°21'612.7
2017-Dec-15 10:01N 55°45' E 015°31'612.6
2017-Dec-15 09:31N 55°48' E 015°41'612.3
2017-Dec-15 09:01N 55°51' E 015°50'612.0
2017-Dec-15 08:30N 55°54' E 015°60'612.1
2017-Dec-15 08:01N 55°57' E 016°09'611.9
2017-Dec-15 07:30N 55°60' E 016°18'611.9
2017-Dec-15 07:01N 56°03' E 016°27'  

Dump ship's entire track history